sensor_id;sensor_type;location;lat;lon;timestamp;pressure;altitude;pressure_sealevel;temperature;humidity
60345;BME280;46188;52.324;8.032;2023-08-17T00:00:24;100932.72;;;17.84;100.00
60345;BME280;46188;52.324;8.032;2023-08-17T00:02:49;100922.06;;;17.84;100.00
60345;BME280;46188;52.324;8.032;2023-08-17T00:05:14;100923.84;;;17.83;100.00
60345;BME280;46188;52.324;8.032;2023-08-17T00:07:40;100919.41;;;17.87;100.00
60345;BME280;46188;52.324;8.032;2023-08-17T00:10:05;100915.84;;;17.83;100.00
60345;BME280;46188;52.324;8.032;2023-08-17T00:12:30;100908.78;;;17.81;100.00
60345;BME280;46188;52.324;8.032;2023-08-17T00:14:56;100914.13;;;17.79;100.00
60345;BME280;46188;52.324;8.032;2023-08-17T00:17:21;100909.69;;;17.80;100.00
60345;BME280;46188;52.324;8.032;2023-08-17T00:19:47;100904.34;;;17.80;100.00
60345;BME280;46188;52.324;8.032;2023-08-17T00:22:12;100899.94;;;17.76;100.00
60345;BME280;46188;52.324;8.032;2023-08-17T00:24:37;100901.75;;;17.72;100.00
60345;BME280;46188;52.324;8.032;2023-08-17T00:27:03;100897.38;;;17.69;100.00
60345;BME280;46188;52.324;8.032;2023-08-17T00:29:29;100894.66;;;17.73;100.00
60345;BME280;46188;52.324;8.032;2023-08-17T00:31:54;100887.53;;;17.75;100.00
60345;BME280;46188;52.324;8.032;2023-08-17T00:34:19;100891.09;;;17.72;100.00
60345;BME280;46188;52.324;8.032;2023-08-17T00:36:45;100885.75;;;17.74;100.00
60345;BME280;46188;52.324;8.032;2023-08-17T00:39:10;100882.19;;;17.75;100.00
60345;BME280;46188;52.324;8.032;2023-08-17T00:41:35;100887.53;;;17.75;100.00
60345;BME280;46188;52.324;8.032;2023-08-17T00:44:01;100877.78;;;17.70;100.00
60345;BME280;46188;52.324;8.032;2023-08-17T00:46:26;100881.34;;;17.73;100.00
60345;BME280;46188;52.324;8.032;2023-08-17T00:48:53;100870.69;;;17.71;100.00
60345;BME280;46188;52.324;8.032;2023-08-17T00:51:21;100874.25;;;17.68;100.00
60345;BME280;46188;52.324;8.032;2023-08-17T00:53:48;100877.91;;;17.61;100.00
60345;BME280;46188;52.324;8.032;2023-08-17T00:56:13;100881.50;;;17.57;100.00
60345;BME280;46188;52.324;8.032;2023-08-17T00:58:39;100883.19;;;17.64;100.00
60345;BME280;46188;52.324;8.032;2023-08-17T01:01:04;100876.97;;;17.64;100.00
60345;BME280;46188;52.324;8.032;2023-08-17T01:03:30;100878.72;;;17.66;100.00
60345;BME280;46188;52.324;8.032;2023-08-17T01:05:56;100877.78;;;17.70;100.00
60345;BME280;46188;52.324;8.032;2023-08-17T01:08:22;100869.78;;;17.70;100.00
60345;BME280;46188;52.324;8.032;2023-08-17T01:11:20;100868.91;;;17.68;100.00
60345;BME280;46188;52.324;8.032;2023-08-17T01:14:04;100871.53;;;17.73;100.00
60345;BME280;46188;52.324;8.032;2023-08-17T01:16:38;100871.56;;;17.70;100.00
60345;BME280;46188;52.324;8.032;2023-08-17T01:19:08;100865.38;;;17.68;100.00
60345;BME280;46188;52.324;8.032;2023-08-17T01:21:41;100874.25;;;17.68;100.00
60345;BME280;46188;52.324;8.032;2023-08-17T01:24:14;100872.44;;;17.70;100.00
60345;BME280;46188;52.324;8.032;2023-08-17T01:26:39;100863.63;;;17.64;100.00
60345;BME280;46188;52.324;8.032;2023-08-17T01:29:04;100869.00;;;17.61;100.00
60345;BME280;46188;52.324;8.032;2023-08-17T01:31:54;100860.16;;;17.57;100.00
60345;BME280;46188;52.324;8.032;2023-08-17T01:34:25;100864.56;;;17.63;100.00
60345;BME280;46188;52.324;8.032;2023-08-17T01:36:53;100860.09;;;17.63;100.00
60345;BME280;46188;52.324;8.032;2023-08-17T01:39:24;100869.09;;;17.55;100.00
60345;BME280;46188;52.324;8.032;2023-08-17T01:41:52;100863.75;;;17.56;100.00
60345;BME280;46188;52.324;8.032;2023-08-17T01:44:21;100867.25;;;17.61;100.00
60345;BME280;46188;52.324;8.032;2023-08-17T01:46:46;100866.41;;;17.56;100.00
60345;BME280;46188;52.324;8.032;2023-08-17T01:49:11;100867.31;;;17.53;100.00
60345;BME280;46188;52.324;8.032;2023-08-17T01:51:36;100866.41;;;17.56;100.00
60345;BME280;46188;52.324;8.032;2023-08-17T01:54:02;100872.69;;;17.49;100.00
60345;BME280;46188;52.324;8.032;2023-08-17T01:56:27;100868.25;;;17.51;100.00
60345;BME280;46188;52.324;8.032;2023-08-17T01:58:52;100864.63;;;17.55;100.00
60345;BME280;46188;52.324;8.032;2023-08-17T02:01:18;100866.44;;;17.53;100.00
60345;BME280;46188;52.324;8.032;2023-08-17T02:03:43;100863.78;;;17.51;100.00
60345;BME280;46188;52.324;8.032;2023-08-17T02:06:08;100862.03;;;17.49;100.00
60345;BME280;46188;52.324;8.032;2023-08-17T02:08:34;100862.03;;;17.49;100.00
60345;BME280;46188;52.324;8.032;2023-08-17T02:11:00;100868.25;;;17.51;100.00
60345;BME280;46188;52.324;8.032;2023-08-17T02:13:26;100869.16;;;17.48;100.00
60345;BME280;46188;52.324;8.032;2023-08-17T02:15:52;100864.69;;;17.49;100.00
60345;BME280;46188;52.324;8.032;2023-08-17T02:18:17;100859.41;;;17.46;100.00
60345;BME280;46188;52.324;8.032;2023-08-17T02:20:43;100851.47;;;17.43;100.00
60345;BME280;46188;52.324;8.032;2023-08-17T02:23:08;100846.16;;;17.40;100.00
60345;BME280;46188;52.324;8.032;2023-08-17T02:25:33;100840.88;;;17.37;100.00
60345;BME280;46188;52.324;8.032;2023-08-17T02:28:02;100839.94;;;17.38;100.00
60345;BME280;46188;52.324;8.032;2023-08-17T02:30:28;100836.44;;;17.34;100.00
60345;BME280;46188;52.324;8.032;2023-08-17T02:32:53;100842.66;;;17.34;100.00
60345;BME280;46188;52.324;8.032;2023-08-17T02:35:19;100847.06;;;17.39;100.00
60345;BME280;46188;52.324;8.032;2023-08-17T02:37:44;100847.94;;;17.38;100.00
60345;BME280;46188;52.324;8.032;2023-08-17T02:40:10;100852.41;;;17.37;100.00
60345;BME280;46188;52.324;8.032;2023-08-17T02:42:35;100855.88;;;17.42;100.00
60345;BME280;46188;52.324;8.032;2023-08-17T02:45:00;100845.22;;;17.42;100.00
60345;BME280;46188;52.324;8.032;2023-08-17T02:47:26;100832.81;;;17.43;100.00
60345;BME280;46188;52.324;8.032;2023-08-17T02:49:51;100837.22;;;17.44;100.00
60345;BME280;46188;52.324;8.032;2023-08-17T02:52:16;100841.69;;;17.42;100.00
60345;BME280;46188;52.324;8.032;2023-08-17T02:54:42;100836.31;;;17.46;100.00
60345;BME280;46188;52.324;8.032;2023-08-17T02:57:07;100836.28;;;17.51;100.00
60345;BME280;46188;52.324;8.032;2023-08-17T02:59:33;100834.44;;;17.55;100.00
60345;BME280;46188;52.324;8.032;2023-08-17T03:01:58;100837.13;;;17.51;100.00
60345;BME280;46188;52.324;8.032;2023-08-17T03:04:23;100834.47;;;17.51;100.00
60345;BME280;46188;52.324;8.032;2023-08-17T03:06:49;100831.81;;;17.50;100.00
60345;BME280;46188;52.324;8.032;2023-08-17T03:09:14;100832.75;;;17.46;100.00
60345;BME280;46188;52.324;8.032;2023-08-17T03:11:40;100833.69;;;17.42;100.00
60345;BME280;46188;52.324;8.032;2023-08-17T03:14:05;100838.03;;;17.49;100.00
60345;BME280;46188;52.324;8.032;2023-08-17T03:16:30;100842.50;;;17.48;100.00
60345;BME280;46188;52.324;8.032;2023-08-17T03:18:56;100843.34;;;17.52;100.00
60345;BME280;46188;52.324;8.032;2023-08-17T03:21:22;100838.88;;;17.54;100.00
60345;BME280;46188;52.324;8.032;2023-08-17T03:23:47;100834.50;;;17.50;100.00
60345;BME280;46188;52.324;8.032;2023-08-17T03:26:13;100839.84;;;17.48;100.00
60345;BME280;46188;52.324;8.032;2023-08-17T03:28:38;100835.38;;;17.49;100.00
60345;BME280;46188;52.324;8.032;2023-08-17T03:31:03;100831.78;;;17.53;100.00
60345;BME280;46188;52.324;8.032;2023-08-17T03:33:29;100829.13;;;17.55;100.00
60345;BME280;46188;52.324;8.032;2023-08-17T03:35:54;100834.47;;;17.53;100.00
60345;BME280;46188;52.324;8.032;2023-08-17T03:38:19;100831.81;;;17.50;100.00
60345;BME280;46188;52.324;8.032;2023-08-17T03:40:46;100817.63;;;17.51;100.00
60345;BME280;46188;52.324;8.032;2023-08-17T03:43:11;100827.31;;;17.55;100.00
60345;BME280;46188;52.324;8.032;2023-08-17T03:45:37;100833.53;;;17.54;100.00
60345;BME280;46188;52.324;8.032;2023-08-17T03:48:02;100836.28;;;17.51;100.00
60345;BME280;46188;52.324;8.032;2023-08-17T03:50:29;100831.81;;;17.51;100.00
60345;BME280;46188;52.324;8.032;2023-08-17T03:52:54;100833.53;;;17.54;100.00
60345;BME280;46188;52.324;8.032;2023-08-17T03:55:20;100827.38;;;17.49;100.00
60345;BME280;46188;52.324;8.032;2023-08-17T03:57:45;100820.31;;;17.48;100.00
60345;BME280;46188;52.324;8.032;2023-08-17T04:00:10;100823.84;;;17.47;100.00
60345;BME280;46188;52.324;8.032;2023-08-17T04:02:36;100825.63;;;17.49;100.00
60345;BME280;46188;52.324;8.032;2023-08-17T04:05:02;100825.69;;;17.43;100.00
60345;BME280;46188;52.324;8.032;2023-08-17T04:07:27;100827.47;;;17.43;100.00
60345;BME280;46188;52.324;8.032;2023-08-17T04:09:52;100833.66;;;17.45;100.00
60345;BME280;46188;52.324;8.032;2023-08-17T04:12:18;100831.81;;;17.50;100.00
60345;BME280;46188;52.324;8.032;2023-08-17T04:14:44;100830.06;;;17.49;100.00
60345;BME280;46188;52.324;8.032;2023-08-17T04:17:09;100833.63;;;17.49;100.00
60345;BME280;46188;52.324;8.032;2023-08-17T04:19:34;100830.94;;;17.49;100.00
60345;BME280;46188;52.324;8.032;2023-08-17T04:21:59;100830.88;;;17.52;100.00
60345;BME280;46188;52.324;8.032;2023-08-17T04:24:25;100822.97;;;17.48;100.00
60345;BME280;46188;52.324;8.032;2023-08-17T04:26:50;100817.78;;;17.34;100.00
60345;BME280;46188;52.324;8.032;2023-08-17T04:29:15;100823.16;;;17.29;100.00
60345;BME280;46188;52.324;8.032;2023-08-17T04:31:40;100821.41;;;17.28;100.00
60345;BME280;46188;52.324;8.032;2023-08-17T04:34:06;100828.47;;;17.29;100.00
60345;BME280;46188;52.324;8.032;2023-08-17T04:36:31;100826.78;;;17.25;100.00
60345;BME280;46188;52.324;8.032;2023-08-17T04:38:56;100828.56;;;17.26;100.00
60345;BME280;46188;52.324;8.032;2023-08-17T04:41:21;100832.97;;;17.26;100.00
60345;BME280;46188;52.324;8.032;2023-08-17T04:43:47;100845.44;;;17.24;100.00
60345;BME280;46188;52.324;8.032;2023-08-17T04:46:14;100840.97;;;17.24;100.00
60345;BME280;46188;52.324;8.032;2023-08-17T04:48:39;100844.56;;;17.22;100.00
60345;BME280;46188;52.324;8.032;2023-08-17T04:51:04;100837.47;;;17.22;100.00
60345;BME280;46188;52.324;8.032;2023-08-17T04:53:30;100836.59;;;17.20;100.00
60345;BME280;46188;52.324;8.032;2023-08-17T04:55:55;100832.16;;;17.19;100.00
60345;BME280;46188;52.324;8.032;2023-08-17T04:58:20;100847.28;;;17.15;100.00
60345;BME280;46188;52.324;8.032;2023-08-17T05:00:46;100837.59;;;17.11;100.00
60345;BME280;46188;52.324;8.032;2023-08-17T05:03:11;100836.66;;;17.12;100.00
60345;BME280;46188;52.324;8.032;2023-08-17T05:05:36;100841.09;;;17.15;100.00
60345;BME280;46188;52.324;8.032;2023-08-17T05:08:02;100842.94;;;17.10;100.00
60345;BME280;46188;52.324;8.032;2023-08-17T05:10:27;100837.59;;;17.10;100.00
60345;BME280;46188;52.324;8.032;2023-08-17T05:12:53;100858.91;;;17.10;100.00
60345;BME280;46188;52.324;8.032;2023-08-17T05:15:19;100856.25;;;17.08;100.00
60345;BME280;46188;52.324;8.032;2023-08-17T05:17:45;100846.47;;;17.09;100.00
60345;BME280;46188;52.324;8.032;2023-08-17T05:20:10;100856.25;;;17.08;100.00
60345;BME280;46188;52.324;8.032;2023-08-17T05:22:37;100858.91;;;17.10;100.00
60345;BME280;46188;52.324;8.032;2023-08-17T05:25:03;100855.34;;;17.08;100.00
60345;BME280;46188;52.324;8.032;2023-08-17T05:27:28;100853.59;;;17.07;100.00
60345;BME280;46188;52.324;8.032;2023-08-17T05:29:54;100847.34;;;17.08;100.00
60345;BME280;46188;52.324;8.032;2023-08-17T05:32:19;100850.91;;;17.11;100.00
60345;BME280;46188;52.324;8.032;2023-08-17T05:34:44;100857.16;;;17.06;100.00
60345;BME280;46188;52.324;8.032;2023-08-17T05:37:09;100859.78;;;17.09;100.00
60345;BME280;46188;52.324;8.032;2023-08-17T05:39:35;100860.72;;;17.06;100.00
60345;BME280;46188;52.324;8.032;2023-08-17T05:42:00;100870.44;;;17.09;100.00
60345;BME280;46188;52.324;8.032;2023-08-17T05:44:25;100858.91;;;17.11;100.00
60345;BME280;46188;52.324;8.032;2023-08-17T05:46:50;100863.31;;;17.11;100.00
60345;BME280;46188;52.324;8.032;2023-08-17T05:49:16;100863.38;;;17.06;100.00
60345;BME280;46188;52.324;8.032;2023-08-17T05:51:41;100861.69;;;16.93;100.00
60345;BME280;46188;52.324;8.032;2023-08-17T05:54:06;100859.97;;;16.92;100.00
60345;BME280;46188;52.324;8.032;2023-08-17T05:56:32;100862.63;;;16.93;100.00
60345;BME280;46188;52.324;8.032;2023-08-17T05:58:57;100864.34;;;16.96;100.00
60345;BME280;46188;52.324;8.032;2023-08-17T06:01:23;100860.84;;;16.92;100.00
60345;BME280;46188;52.324;8.032;2023-08-17T06:03:48;100862.63;;;16.92;100.00
60345;BME280;46188;52.324;8.032;2023-08-17T06:06:13;100859.09;;;16.91;100.00
60345;BME280;46188;52.324;8.032;2023-08-17T06:08:39;100862.59;;;16.95;100.00
60345;BME280;46188;52.324;8.032;2023-08-17T06:11:04;100867.91;;;16.96;100.00
60345;BME280;46188;52.324;8.032;2023-08-17T06:13:30;100867.94;;;16.95;100.00
60345;BME280;46188;52.324;8.032;2023-08-17T06:15:58;100859.91;;;16.96;100.00
60345;BME280;46188;52.324;8.032;2023-08-17T06:18:23;100861.69;;;16.93;100.00
60345;BME280;46188;52.324;8.032;2023-08-17T06:20:49;100858.16;;;16.94;100.00
60345;BME280;46188;52.324;8.032;2023-08-17T06:23:17;100867.91;;;16.96;100.00
60345;BME280;46188;52.324;8.032;2023-08-17T06:25:42;100872.31;;;16.97;100.00
60345;BME280;46188;52.324;8.032;2023-08-17T06:28:07;100866.16;;;16.94;100.00
60345;BME280;46188;52.324;8.032;2023-08-17T06:30:33;100862.63;;;16.93;100.00
60345;BME280;46188;52.324;8.032;2023-08-17T06:32:58;100859.03;;;16.94;100.00
60345;BME280;46188;52.324;8.032;2023-08-17T06:35:24;100863.44;;;17.02;100.00
60345;BME280;46188;52.324;8.032;2023-08-17T06:37:49;100863.41;;;17.03;100.00
60345;BME280;46188;52.324;8.032;2023-08-17T06:40:16;100863.41;;;17.03;100.00
60345;BME280;46188;52.324;8.032;2023-08-17T06:42:41;100856.28;;;17.04;100.00
60345;BME280;46188;52.324;8.032;2023-08-17T06:45:07;100858.97;;;17.01;100.00
60345;BME280;46188;52.324;8.032;2023-08-17T06:47:32;100855.41;;;17.05;100.00
60345;BME280;46188;52.324;8.032;2023-08-17T06:49:57;100861.59;;;17.05;100.00
60345;BME280;46188;52.324;8.032;2023-08-17T06:52:23;100863.41;;;17.05;100.00
60345;BME280;46188;52.324;8.032;2023-08-17T06:54:49;100858.94;;;17.07;100.00
60345;BME280;46188;52.324;8.032;2023-08-17T06:57:14;100856.28;;;17.07;100.00
60345;BME280;46188;52.324;8.032;2023-08-17T06:59:39;100858.97;;;17.01;100.00
60345;BME280;46188;52.324;8.032;2023-08-17T07:02:05;100854.50;;;17.04;100.00
60345;BME280;46188;52.324;8.032;2023-08-17T07:04:30;100858.06;;;17.06;100.00
60345;BME280;46188;52.324;8.032;2023-08-17T07:06:56;100858.06;;;17.05;100.00
60345;BME280;46188;52.324;8.032;2023-08-17T07:09:21;100853.59;;;17.08;100.00
60345;BME280;46188;52.324;8.032;2023-08-17T07:11:46;100858.91;;;17.11;100.00
60345;BME280;46188;52.324;8.032;2023-08-17T07:14:12;100862.41;;;17.13;100.00
60345;BME280;46188;52.324;8.032;2023-08-17T07:16:37;100859.75;;;17.13;100.00
60345;BME280;46188;52.324;8.032;2023-08-17T07:19:02;100865.09;;;17.12;100.00
60345;BME280;46188;52.324;8.032;2023-08-17T07:21:28;100862.44;;;17.12;100.00
60345;BME280;46188;52.324;8.032;2023-08-17T07:23:54;100867.72;;;17.15;100.00
60345;BME280;46188;52.324;8.032;2023-08-17T07:26:19;100870.41;;;17.15;100.00
60345;BME280;46188;52.324;8.032;2023-08-17T07:28:45;100873.03;;;17.18;100.00
60345;BME280;46188;52.324;8.032;2023-08-17T07:31:10;100873.91;;;17.19;100.00
60345;BME280;46188;52.324;8.032;2023-08-17T07:33:36;100869.44;;;17.22;100.00
60345;BME280;46188;52.324;8.032;2023-08-17T07:36:01;100868.53;;;17.23;100.00
60345;BME280;46188;52.324;8.032;2023-08-17T07:38:27;100877.41;;;17.24;100.00
60345;BME280;46188;52.324;8.032;2023-08-17T07:40:52;100883.59;;;17.27;100.00
60345;BME280;46188;52.324;8.032;2023-08-17T07:43:17;100887.16;;;17.28;100.00
60345;BME280;46188;52.324;8.032;2023-08-17T07:45:42;100888.06;;;17.25;100.00
60345;BME280;46188;52.324;8.032;2023-08-17T07:48:08;100887.09;;;17.29;100.00
60345;BME280;46188;52.324;8.032;2023-08-17T07:50:33;100886.22;;;17.29;100.00
60345;BME280;46188;52.324;8.032;2023-08-17T07:52:58;100885.34;;;17.31;100.00
60345;BME280;46188;52.324;8.032;2023-08-17T07:55:25;100885.28;;;17.36;100.00
60345;BME280;46188;52.324;8.032;2023-08-17T07:57:51;100879.91;;;17.38;100.00
60345;BME280;46188;52.324;8.032;2023-08-17T08:00:16;100887.91;;;17.38;100.00
60345;BME280;46188;52.324;8.032;2023-08-17T08:02:41;100890.56;;;17.41;100.00
60345;BME280;46188;52.324;8.032;2023-08-17T08:05:07;100887.00;;;17.42;100.00
60345;BME280;46188;52.324;8.032;2023-08-17T08:07:32;100894.03;;;17.46;100.00
60345;BME280;46188;52.324;8.032;2023-08-17T08:09:57;100887.78;;;17.51;100.00
60345;BME280;46188;52.324;8.032;2023-08-17T08:12:23;100900.19;;;17.52;100.00
60345;BME280;46188;52.324;8.032;2023-08-17T08:14:48;100897.56;;;17.51;100.00
60345;BME280;46188;52.324;8.032;2023-08-17T08:17:14;100899.28;;;17.55;100.00
60345;BME280;46188;52.324;8.032;2023-08-17T08:19:39;100895.75;;;17.56;100.00
60345;BME280;46188;52.324;8.032;2023-08-17T08:22:04;100900.28;;;17.48;100.00
60345;BME280;46188;52.324;8.032;2023-08-17T08:24:30;100902.03;;;17.46;100.00
60345;BME280;46188;52.324;8.032;2023-08-17T08:27:00;100898.50;;;17.45;100.00
60345;BME280;46188;52.324;8.032;2023-08-17T08:29:26;100901.13;;;17.50;100.00
60345;BME280;46188;52.324;8.032;2023-08-17T08:31:52;100899.44;;;17.43;100.00
60345;BME280;46188;52.324;8.032;2023-08-17T08:34:17;100896.69;;;17.47;100.00
60345;BME280;46188;52.324;8.032;2023-08-17T08:36:43;100902.00;;;17.50;100.00
60345;BME280;46188;52.324;8.032;2023-08-17T08:39:08;100898.47;;;17.50;100.00
60345;BME280;46188;52.324;8.032;2023-08-17T08:41:35;100902.00;;;17.50;100.00
60345;BME280;46188;52.324;8.032;2023-08-17T08:44:00;100891.31;;;17.53;100.00
60345;BME280;46188;52.324;8.032;2023-08-17T08:46:30;100883.28;;;17.57;100.00
60345;BME280;46188;52.324;8.032;2023-08-17T08:48:55;100886.78;;;17.62;100.00
60345;BME280;46188;52.324;8.032;2023-08-17T08:51:27;100889.38;;;17.68;100.00
60345;BME280;46188;52.324;8.032;2023-08-17T08:54:00;100885.88;;;17.63;100.00
60345;BME280;46188;52.324;8.032;2023-08-17T08:56:33;100886.75;;;17.65;100.00
60345;BME280;46188;52.324;8.032;2023-08-17T08:59:04;100883.09;;;17.70;100.00
60345;BME280;46188;52.324;8.032;2023-08-17T09:01:30;100873.31;;;17.74;100.00
60345;BME280;46188;52.324;8.032;2023-08-17T09:03:58;100868.81;;;17.78;100.00
60345;BME280;46188;52.324;8.032;2023-08-17T09:06:25;100869.59;;;17.86;100.00
60345;BME280;46188;52.324;8.032;2023-08-17T09:08:52;100873.16;;;17.89;100.00
60345;BME280;46188;52.324;8.032;2023-08-17T09:11:17;100866.03;;;17.90;100.00
60345;BME280;46188;52.324;8.032;2023-08-17T09:13:42;100866.03;;;17.88;100.00
60345;BME280;46188;52.324;8.032;2023-08-17T09:16:07;100863.38;;;17.85;100.00
60345;BME280;46188;52.324;8.032;2023-08-17T09:18:34;100873.97;;;17.95;100.00
60345;BME280;46188;52.324;8.032;2023-08-17T09:20:59;100872.91;;;18.06;100.00
60345;BME280;46188;52.324;8.032;2023-08-17T09:23:24;100872.03;;;18.07;100.00
60345;BME280;46188;52.324;8.032;2023-08-17T09:25:50;100864.03;;;18.06;100.00
60345;BME280;46188;52.324;8.032;2023-08-17T09:28:18;100874.72;;;18.06;100.00
60345;BME280;46188;52.324;8.032;2023-08-17T09:31:00;100876.53;;;18.04;100.00
60345;BME280;46188;52.324;8.032;2023-08-17T09:33:28;100877.44;;;18.01;100.00
60345;BME280;46188;52.324;8.032;2023-08-17T09:35:55;100871.09;;;18.10;100.00
60345;BME280;46188;52.324;8.032;2023-08-17T09:38:21;100874.56;;;18.15;100.00
60345;BME280;46188;52.324;8.032;2023-08-17T09:40:47;100868.31;;;18.18;100.00
60345;BME280;46188;52.324;8.032;2023-08-17T09:43:16;100868.34;;;18.15;100.00
60345;BME280;46188;52.324;8.032;2023-08-17T09:45:45;100863.06;;;18.12;100.00
60345;BME280;46188;52.324;8.032;2023-08-17T09:48:18;100857.69;;;18.15;100.00
60345;BME280;46188;52.324;8.032;2023-08-17T09:50:45;100853.19;;;18.17;100.00
60345;BME280;46188;52.324;8.032;2023-08-17T09:53:15;100862.00;;;18.23;100.00
60345;BME280;46188;52.324;8.032;2023-08-17T09:55:42;100857.69;;;18.15;100.00
60345;BME280;46188;52.324;8.032;2023-08-17T09:58:08;100852.44;;;18.07;100.00
60345;BME280;46188;52.324;8.032;2023-08-17T10:00:34;100851.50;;;18.13;100.00
60345;BME280;46188;52.324;8.032;2023-08-17T10:03:02;100849.63;;;18.19;100.00
60345;BME280;46188;52.324;8.032;2023-08-17T10:05:31;100858.41;;;18.26;100.00
60345;BME280;46188;52.324;8.032;2023-08-17T10:07:57;100861.91;;;18.31;100.00
60345;BME280;46188;52.324;8.032;2023-08-17T10:10:26;100861.06;;;18.29;100.00
60345;BME280;46188;52.324;8.032;2023-08-17T10:13:11;100855.72;;;18.29;100.00
60345;BME280;46188;52.324;8.032;2023-08-17T10:15:38;100854.81;;;18.29;100.00
60345;BME280;46188;52.324;8.032;2023-08-17T10:20:34;100864.44;;;18.40;100.00
60345;BME280;46188;52.324;8.032;2023-08-17T10:23:17;100865.31;;;18.41;100.00
60345;BME280;46188;52.324;8.032;2023-08-17T10:25:44;100864.38;;;18.43;100.00
60345;BME280;46188;52.324;8.032;2023-08-17T10:28:10;100859.81;;;18.50;100.00
60345;BME280;46188;52.324;8.032;2023-08-17T10:30:37;100858.06;;;18.51;100.00
60345;BME280;46188;52.324;8.032;2023-08-17T10:33:05;100858.00;;;18.55;100.00
60345;BME280;46188;52.324;8.032;2023-08-17T10:35:31;100856.16;;;18.59;100.00
60345;BME280;46188;52.324;8.032;2023-08-17T10:37:58;100859.69;;;18.59;100.00
60345;BME280;46188;52.324;8.032;2023-08-17T10:40:27;100863.16;;;18.65;100.00
60345;BME280;46188;52.324;8.032;2023-08-17T10:42:54;100862.28;;;18.64;100.00
60345;BME280;46188;52.324;8.032;2023-08-17T10:45:26;100864.78;;;18.73;100.00
60345;BME280;46188;52.324;8.032;2023-08-17T10:50:35;100868.38;;;18.74;100.00
60345;BME280;46188;52.324;8.032;2023-08-17T10:53:19;100864.84;;;18.72;100.00
60345;BME280;46188;52.324;8.032;2023-08-17T10:55:45;100866.44;;;18.82;100.00
60345;BME280;46188;52.324;8.032;2023-08-17T10:58:14;100865.50;;;18.86;100.00
60345;BME280;46188;52.324;8.032;2023-08-17T11:00:40;100871.69;;;18.90;100.00
60345;BME280;46188;52.324;8.032;2023-08-17T11:03:08;100868.97;;;18.93;100.00
60345;BME280;46188;52.324;8.032;2023-08-17T11:05:47;100867.09;;;18.98;100.00
60345;BME280;46188;52.324;8.032;2023-08-17T11:08:29;100857.31;;;18.98;100.00
60345;BME280;46188;52.324;8.032;2023-08-17T11:13:34;100870.75;;;18.92;100.00
60345;BME280;46188;52.324;8.032;2023-08-17T11:16:00;100860.97;;;18.91;100.00
60345;BME280;46188;52.324;8.032;2023-08-17T11:18:26;100870.78;;;18.91;100.00
60345;BME280;46188;52.324;8.032;2023-08-17T11:20:53;100863.66;;;18.90;100.00
60345;BME280;46188;52.324;8.032;2023-08-17T11:23:19;100867.25;;;18.89;100.00
60345;BME280;46188;52.324;8.032;2023-08-17T11:25:44;100871.56;;;18.97;100.00
60345;BME280;46188;52.324;8.032;2023-08-17T11:28:10;100876.84;;;19.01;100.00
60345;BME280;46188;52.324;8.032;2023-08-17T11:30:36;100869.63;;;19.06;100.00
60345;BME280;46188;52.324;8.032;2023-08-17T11:33:04;100869.53;;;19.12;100.00
60345;BME280;46188;52.324;8.032;2023-08-17T11:35:30;100864.06;;;19.18;100.00
60345;BME280;46188;52.324;8.032;2023-08-17T11:37:55;100869.34;;;19.21;100.00
60345;BME280;46188;52.324;8.032;2023-08-17T11:40:21;100867.56;;;19.23;100.00
60345;BME280;46188;52.324;8.032;2023-08-17T11:42:46;100871.09;;;19.24;100.00
60345;BME280;46188;52.324;8.032;2023-08-17T11:45:12;100874.53;;;19.30;100.00
60345;BME280;46188;52.324;8.032;2023-08-17T11:47:38;100879.00;;;19.30;100.00
60345;BME280;46188;52.324;8.032;2023-08-17T11:50:05;100875.31;;;19.37;100.00
60345;BME280;46188;52.324;8.032;2023-08-17T11:52:32;100884.22;;;19.36;100.00
60345;BME280;46188;52.324;8.032;2023-08-17T11:54:58;100882.44;;;19.36;100.00
60345;BME280;46188;52.324;8.032;2023-08-17T11:57:24;100883.31;;;19.37;100.00
60345;BME280;46188;52.324;8.032;2023-08-17T11:59:54;100873.44;;;19.41;100.00
60345;BME280;46188;52.324;8.032;2023-08-17T12:02:23;100880.75;;;19.31;100.00
60345;BME280;46188;52.324;8.032;2023-08-17T12:04:49;100873.56;;;19.33;100.00
60345;BME280;46188;52.324;8.032;2023-08-17T12:07:15;100872.94;;;19.22;100.00
60345;BME280;46188;52.324;8.032;2023-08-17T12:09:41;100873.88;;;19.17;100.00
60345;BME280;46188;52.324;8.032;2023-08-17T12:12:07;100859.53;;;19.23;100.00
60345;BME280;46188;52.324;8.032;2023-08-17T12:14:32;100855.03;;;19.25;100.00
60345;BME280;46188;52.324;8.032;2023-08-17T12:16:58;100860.28;;;19.30;100.00
60345;BME280;46188;52.324;8.032;2023-08-17T12:19:26;100851.22;;;19.39;100.00
60345;BME280;46188;52.324;8.032;2023-08-17T12:21:51;100857.38;;;19.42;100.00
60345;BME280;46188;52.324;8.032;2023-08-17T12:24:17;100864.34;;;19.49;100.00
60345;BME280;46188;52.324;8.032;2023-08-17T12:26:45;100859.84;;;19.53;100.00
60345;BME280;46188;52.324;8.032;2023-08-17T12:29:11;100859.81;;;19.54;100.00
60345;BME280;46188;52.324;8.032;2023-08-17T12:31:36;100865.19;;;19.53;100.00
60345;BME280;46188;52.324;8.032;2023-08-17T12:34:02;100859.72;;;19.58;100.00
60345;BME280;46188;52.324;8.032;2023-08-17T12:36:28;100871.22;;;19.63;100.00
60345;BME280;46188;52.324;8.032;2023-08-17T12:38:54;100868.66;;;19.58;100.00
60345;BME280;46188;52.324;8.032;2023-08-17T12:41:19;100871.44;;;19.52;100.00
60345;BME280;46188;52.324;8.032;2023-08-17T12:43:44;100877.66;;;19.52;100.00